HOURLY OBS INDEX

021

Northern Agricultural - Lower North

CLARE HIGH SCHOOL

Site: 021131
Alt: 395.0m
2km NW of CLARE


  Time     Wind        Temp  DP   Baro     Rain since   Rain past  Vis(m), Cloud(base in m), Weather
  local        km/h                         9am  last   hr   10m    
Mon 19:30   SE 13/ 22  24.9  3.0  1015.4    0.0   0.0   0.0   0.0   ----- 
Mon 19:30   SE 13/ 22  24.9  3.0  1015.4    0.0   0.0  ----   0.0   ----- 
Mon 20:00    E 11/ 20  24.5  2.6  1015.6    0.0   0.0   0.0   0.0   ----- 
Mon 20:00    E 11/ 20  24.5  2.6  1015.6    0.0   0.0  ----   0.0   ----- 
Mon 20:30    E 13/ 24  24.1  2.3  1016.1    0.0   0.0   0.0   0.0   ----- 
Mon 20:30    E 13/ 24  24.1  2.3  1016.1    0.0   0.0  ----   0.0   ----- 
Mon 21:00   SE 11/ 19  23.2  3.2  1016.2    0.0   0.0   0.0   0.0   ----- 
Mon 21:30   SE 11/ 19  22.3  4.8  1015.8    0.0   0.0   0.0   0.0   ----- 
Mon 22:00   SE 11/ 19  21.6  5.1  1016.1    0.0   0.0   0.0   0.0   ----- 
Mon 22:30   SE 11/ 17  20.8  5.2  1015.9    0.0   0.0   0.0   0.0   ----- 
Mon 23:00  ESE  7/ 15  20.4  5.2  1016.0    0.0   0.0   0.0   0.0   ----- 
Mon 23:30   SE  9/ 17  20.2  5.1  1015.7    0.0   0.0   0.0   0.0   ----- 
Tue 00:00   SE  9/ 15  19.9  5.2  1015.4    0.0   0.0   0.0   0.0   ----- 
Tue 00:30  ESE 11/ 17  19.6  4.9  1015.1    0.0   0.0   0.0   0.0   ----- 
Tue 01:00  ESE  9/ 17  19.5  4.8  1014.8    0.0   0.0   0.0   0.0   ----- 

PORT PIRIE AERODROME AWS

Site: 021139
Alt: 12.0m
km of


  Time     Wind        Temp  DP   Baro     Rain since   Rain past  Vis(m), Cloud(base in m), Weather
  local        km/h                         9am  last   hr   10m    
Mon 19:30    S 32/ 39  26.3  8.8  1013.5    0.0   0.0   0.0   0.0   ----- 
Mon 19:30    S 32/ 39  26.3  8.8  1013.5    0.0   0.0  ----   0.0   ----- 
Mon 20:00    S 28/ 35  25.3  9.2  1013.8    0.0   0.0   0.0   0.0   ----- 
Mon 20:00    S 28/ 35  25.3  9.2  1013.8    0.0   0.0  ----   0.0   ----- 
Mon 20:30  SSE 17/ 22  25.5  8.9  1014.0    0.0   0.0   0.0   0.0   ----- 
Mon 20:30  SSE 17/ 22  25.5  8.9  1014.0    0.0   0.0  ----   0.0   ----- 
Mon 21:00    S 20/ 26  24.6  9.0  1014.2    0.0   0.0   0.0   0.0   ----- 
Mon 21:30  SSE 20/ 30  24.8  8.3  1013.8    0.0   0.0   0.0   0.0   ----- 
Mon 22:00  SSE 28/ 33  24.6  9.0  1014.0    0.0   0.0   0.0   0.0   ----- 
Mon 22:30  SSE 22/ 30  23.9  8.3  1014.2    0.0   0.0   0.0   0.0   ----- 
Mon 23:00  SSE 22/ 32  24.0  7.6  1014.3    0.0   0.0   0.0   0.0   ----- 
Mon 23:30   SE 24/ 30  23.0  7.9  1014.0    0.0   0.0   0.0   0.0   ----- 
Tue 00:00   SE 19/ 28  22.5  7.9  1014.1    0.0   0.0   0.0   0.0   ----- 
Tue 00:30   SE 20/ 26  21.4  8.0  1013.9    0.0   0.0   0.0   0.0   ----- 
Tue 01:00   SE 24/ 28  20.9  8.2  1013.8    0.0   0.0   0.0   0.0   ----- 

SNOWTOWN (RAYVILLE PARK)

Site: 021133
Alt: 109.1m
37km WNW of CLARE


  Time     Wind        Temp  DP   Baro     Rain since   Rain past  Vis(m), Cloud(base in m), Weather
  local        km/h                         9am  last   hr   10m    
Mon 19:30    S 30/ 41  21.9 11.6  1015.0    0.0   0.0   0.0   0.0   ----- 
Mon 19:30    S 30/ 41  21.9 11.6  1015.0    0.0   0.0  ----   0.0   ----- 
Mon 20:00    S 24/ 35  21.5 12.4  1015.4    0.0   0.0   0.0   0.0   ----- 
Mon 20:00    S 24/ 35  21.5 12.4  1015.4    0.0   0.0  ----   0.0   ----- 
Mon 20:30  SSW 26/ 35  20.8 12.5  1015.8    0.0   0.0   0.0   0.0   ----- 
Mon 20:30  SSW 26/ 35  20.8 12.5  1015.8    0.0   0.0  ----   0.0   ----- 
Mon 21:00  SSW 22/ 32  20.7 12.4  1015.7    0.0   0.0   0.0   0.0   ----- 
Mon 21:30  SSW 22/ 30  20.5 12.2  1015.8    0.0   0.0   0.0   0.0   ----- 
Mon 22:00  SSW 19/ 26  19.6 11.6  1016.0    0.0   0.0   0.0   0.0   ----- 
Mon 22:30  SSW 20/ 28  19.0 11.8  1016.0    0.0   0.0   0.0   0.0   ----- 
Mon 23:00  SSW 20/ 26  18.5 11.6  1016.1    0.0   0.0   0.0   0.0   ----- 
Mon 23:30  SSW 19/ 28  18.3 11.6  1015.8    0.0   0.0   0.0   0.0   ----- 
Tue 00:00  SSW 24/ 30  17.8 11.4  1015.5    0.0   0.0   0.0   0.0   ----- 
Tue 00:30  SSW 22/ 30  17.2 11.5  1015.2    0.0   0.0   0.0   0.0   ----- 
Tue 01:00  SSW 22/ 28  17.2 10.6  1015.1    0.0   0.0   0.0   0.0   -----